Washington, DC (20074)

7:27 AM EDT on July 28, 2016 (GMT -0400)
Eckington Pl, NE | | Change Station

Elev 90 ft 38.91 °N, 77.01 °W | Updated 4 minutes ago

Mostly Cloudy
Mostly Cloudy
84.9 °F
Feels Like 92 °F
N
1.0
Wind Variable Wind from NE
Gusts 4.0 mph

Today
High -- | Low -- °F
--% Chance of Precip.
Yesterday
High -- | Low -- °F
Precip. -- in
Pressure 29.91 in
Visibility 10.0 miles
Clouds Scattered Clouds 17000 ft
Mostly Cloudy 19000 ft
Mostly Cloudy 25000 ft
Heat Index 92 °F
Dew Point 74 °F
Humidity 70%
Rainfall Not available.
Snow Depth Not available.
6:05 AM 8:22 PM
Waning Crescent, 33% visible
METAR KDCA 281052Z 23003KT 10SM SCT170 BKN190 BKN250 28/23 A2991 RMK AO2 SLP126 T02830233 $
Pressure 29.91 in
Visibility 10.0 miles
Clouds Scattered Clouds 17000 ft
Mostly Cloudy 19000 ft
Mostly Cloudy 25000 ft
Heat Index 92 °F
Dew Point 74 °F
Humidity 70%
Rainfall Not available.
Snow Depth Not available.
6:05 AM 8:22 PM
Waning Crescent, 33% visible
METAR KDCA 281052Z 23003KT 10SM SCT170 BKN190 BKN250 28/23 A2991 RMK AO2 SLP126 T02830233 $

10-Day Weather Forecast

Almanac

Astronomy

Jul. 28, 2016 Rise Set
Actual Time
Civil Twilight
Nautical Twilight
Astronomical Twilight
Moon
Length of Visible Light
Length of Day
Tomorrow will be .
, % of the Moon is Illuminated

Today's Extremes

State Highs State Lows

Community

WunderPhotos

Upload Photos

1,928,083 photos uploaded!

WunderBlog® & News

Nearby

Air Quality

  Air Quality AQ Index Pollutant
Not available.

Snow Depth

Station Depth Elevation

Earthquake Activity

City Distance Mag. Time & Date
Minimum magnitude displayed is 2.5.

Coastal Water Temperatures

Place Temperature

Stations

Nearby Weather Stations

Station Location Temp. Windchill Dew Point Humidity Wind Precip. Elev Updated Type
                   

Watches & Warnings

There are currently no watches in effect.